sensor_id;sensor_type;location;lat;lon;timestamp;P1;durP1;ratioP1;P2;durP2;ratioP2
32934;SDS011;19292;51.532;7.650;2022-08-05T00:00:32;5.53;;;3.60;;
32934;SDS011;19292;51.532;7.650;2022-08-05T00:02:58;7.47;;;3.72;;
32934;SDS011;19292;51.532;7.650;2022-08-05T00:05:23;6.22;;;3.50;;
32934;SDS011;19292;51.532;7.650;2022-08-05T00:07:48;9.65;;;4.35;;
32934;SDS011;19292;51.532;7.650;2022-08-05T00:10:14;8.68;;;4.82;;
32934;SDS011;19292;51.532;7.650;2022-08-05T00:12:39;7.15;;;4.50;;
32934;SDS011;19292;51.532;7.650;2022-08-05T00:15:05;6.75;;;3.83;;
32934;SDS011;19292;51.532;7.650;2022-08-05T00:17:30;6.22;;;3.85;;
32934;SDS011;19292;51.532;7.650;2022-08-05T00:19:56;6.55;;;3.90;;
32934;SDS011;19292;51.532;7.650;2022-08-05T00:22:21;6.28;;;4.13;;
32934;SDS011;19292;51.532;7.650;2022-08-05T00:24:47;6.25;;;4.07;;
32934;SDS011;19292;51.532;7.650;2022-08-05T00:27:12;6.10;;;4.57;;
32934;SDS011;19292;51.532;7.650;2022-08-05T00:29:37;6.57;;;4.10;;
32934;SDS011;19292;51.532;7.650;2022-08-05T00:32:03;5.65;;;2.92;;
32934;SDS011;19292;51.532;7.650;2022-08-05T00:34:32;6.68;;;3.33;;
32934;SDS011;19292;51.532;7.650;2022-08-05T00:36:57;4.90;;;2.92;;
32934;SDS011;19292;51.532;7.650;2022-08-05T00:39:23;5.38;;;3.03;;
32934;SDS011;19292;51.532;7.650;2022-08-05T00:41:48;7.60;;;3.28;;
32934;SDS011;19292;51.532;7.650;2022-08-05T00:44:13;8.30;;;3.40;;
32934;SDS011;19292;51.532;7.650;2022-08-05T00:46:39;5.82;;;3.33;;
32934;SDS011;19292;51.532;7.650;2022-08-05T00:49:04;5.10;;;2.78;;
32934;SDS011;19292;51.532;7.650;2022-08-05T00:51:29;6.45;;;2.70;;
32934;SDS011;19292;51.532;7.650;2022-08-05T00:53:55;5.20;;;3.00;;
32934;SDS011;19292;51.532;7.650;2022-08-05T00:56:20;5.90;;;2.72;;
32934;SDS011;19292;51.532;7.650;2022-08-05T00:58:46;4.45;;;2.30;;
32934;SDS011;19292;51.532;7.650;2022-08-05T01:01:12;5.30;;;3.13;;
32934;SDS011;19292;51.532;7.650;2022-08-05T01:03:39;5.95;;;3.10;;
32934;SDS011;19292;51.532;7.650;2022-08-05T01:06:05;6.07;;;2.97;;
32934;SDS011;19292;51.532;7.650;2022-08-05T01:14:05;8.82;;;2.67;;
32934;SDS011;19292;51.532;7.650;2022-08-05T01:16:53;3.58;;;2.97;;
32934;SDS011;19292;51.532;7.650;2022-08-05T01:27:48;4.85;;;2.83;;
32934;SDS011;19292;51.532;7.650;2022-08-05T01:30:39;2.97;;;2.17;;
32934;SDS011;19292;51.532;7.650;2022-08-05T01:33:08;5.60;;;2.85;;
32934;SDS011;19292;51.532;7.650;2022-08-05T01:35:35;4.93;;;2.75;;
32934;SDS011;19292;51.532;7.650;2022-08-05T01:38:03;4.40;;;2.30;;
32934;SDS011;19292;51.532;7.650;2022-08-05T01:40:29;4.85;;;2.50;;
32934;SDS011;19292;51.532;7.650;2022-08-05T01:42:56;3.95;;;2.40;;
32934;SDS011;19292;51.532;7.650;2022-08-05T01:45:21;4.50;;;2.33;;
32934;SDS011;19292;51.532;7.650;2022-08-05T01:47:48;4.72;;;2.60;;
32934;SDS011;19292;51.532;7.650;2022-08-05T01:50:16;3.72;;;2.55;;
32934;SDS011;19292;51.532;7.650;2022-08-05T01:52:53;2.58;;;2.05;;
32934;SDS011;19292;51.532;7.650;2022-08-05T01:55:21;4.43;;;2.15;;
32934;SDS011;19292;51.532;7.650;2022-08-05T01:57:48;5.85;;;2.15;;
32934;SDS011;19292;51.532;7.650;2022-08-05T02:00:15;5.28;;;2.42;;
32934;SDS011;19292;51.532;7.650;2022-08-05T02:02:46;2.83;;;2.00;;
32934;SDS011;19292;51.532;7.650;2022-08-05T02:05:15;4.75;;;2.92;;
32934;SDS011;19292;51.532;7.650;2022-08-05T02:07:41;7.47;;;3.00;;
32934;SDS011;19292;51.532;7.650;2022-08-05T02:10:07;5.70;;;3.33;;
32934;SDS011;19292;51.532;7.650;2022-08-05T02:12:49;3.95;;;2.90;;
32934;SDS011;19292;51.532;7.650;2022-08-05T02:15:21;6.28;;;2.92;;
32934;SDS011;19292;51.532;7.650;2022-08-05T02:18:06;4.43;;;2.90;;
32934;SDS011;19292;51.532;7.650;2022-08-05T02:20:57;4.83;;;2.27;;
32934;SDS011;19292;51.532;7.650;2022-08-05T02:23:41;6.75;;;2.70;;
32934;SDS011;19292;51.532;7.650;2022-08-05T02:26:08;5.13;;;2.63;;
32934;SDS011;19292;51.532;7.650;2022-08-05T02:28:36;6.38;;;3.05;;
32934;SDS011;19292;51.532;7.650;2022-08-05T02:31:08;4.97;;;2.45;;
32934;SDS011;19292;51.532;7.650;2022-08-05T02:33:41;3.00;;;2.50;;
32934;SDS011;19292;51.532;7.650;2022-08-05T02:36:12;3.90;;;2.65;;
32934;SDS011;19292;51.532;7.650;2022-08-05T02:38:40;4.25;;;2.55;;
32934;SDS011;19292;51.532;7.650;2022-08-05T02:41:08;5.13;;;2.55;;
32934;SDS011;19292;51.532;7.650;2022-08-05T02:43:35;6.65;;;3.13;;
32934;SDS011;19292;51.532;7.650;2022-08-05T02:46:02;3.58;;;3.17;;
32934;SDS011;19292;51.532;7.650;2022-08-05T02:48:28;7.00;;;3.00;;
32934;SDS011;19292;51.532;7.650;2022-08-05T02:50:54;6.82;;;3.13;;
32934;SDS011;19292;51.532;7.650;2022-08-05T02:53:19;3.72;;;2.58;;
32934;SDS011;19292;51.532;7.650;2022-08-05T02:55:48;4.10;;;2.35;;
32934;SDS011;19292;51.532;7.650;2022-08-05T02:58:14;6.45;;;3.03;;
32934;SDS011;19292;51.532;7.650;2022-08-05T03:00:40;4.97;;;2.70;;
32934;SDS011;19292;51.532;7.650;2022-08-05T03:03:06;7.32;;;3.10;;
32934;SDS011;19292;51.532;7.650;2022-08-05T03:05:32;6.38;;;3.08;;
32934;SDS011;19292;51.532;7.650;2022-08-05T03:07:57;4.93;;;2.90;;
32934;SDS011;19292;51.532;7.650;2022-08-05T03:10:23;6.93;;;3.17;;
32934;SDS011;19292;51.532;7.650;2022-08-05T03:12:49;5.38;;;3.13;;
32934;SDS011;19292;51.532;7.650;2022-08-05T03:15:15;7.60;;;3.63;;
32934;SDS011;19292;51.532;7.650;2022-08-05T03:17:40;3.95;;;2.85;;
32934;SDS011;19292;51.532;7.650;2022-08-05T03:20:05;6.13;;;3.38;;
32934;SDS011;19292;51.532;7.650;2022-08-05T03:22:31;5.22;;;3.67;;
32934;SDS011;19292;51.532;7.650;2022-08-05T03:24:57;8.00;;;4.18;;
32934;SDS011;19292;51.532;7.650;2022-08-05T03:27:23;6.70;;;3.90;;
32934;SDS011;19292;51.532;7.650;2022-08-05T03:29:49;5.28;;;3.45;;
32934;SDS011;19292;51.532;7.650;2022-08-05T03:32:15;5.57;;;3.78;;
32934;SDS011;19292;51.532;7.650;2022-08-05T03:34:41;8.43;;;3.80;;
32934;SDS011;19292;51.532;7.650;2022-08-05T03:37:07;6.40;;;3.70;;
32934;SDS011;19292;51.532;7.650;2022-08-05T03:39:32;6.68;;;3.70;;
32934;SDS011;19292;51.532;7.650;2022-08-05T03:41:58;5.82;;;3.42;;
32934;SDS011;19292;51.532;7.650;2022-08-05T03:44:24;4.43;;;3.60;;
32934;SDS011;19292;51.532;7.650;2022-08-05T03:46:49;8.52;;;3.92;;
32934;SDS011;19292;51.532;7.650;2022-08-05T03:49:15;8.90;;;4.45;;
32934;SDS011;19292;51.532;7.650;2022-08-05T03:52:23;6.60;;;4.13;;
32934;SDS011;19292;51.532;7.650;2022-08-05T03:54:32;5.80;;;3.97;;
32934;SDS011;19292;51.532;7.650;2022-08-05T03:57:01;9.23;;;4.70;;
32934;SDS011;19292;51.532;7.650;2022-08-05T03:59:39;6.40;;;4.82;;
32934;SDS011;19292;51.532;7.650;2022-08-05T04:02:06;6.65;;;4.75;;
32934;SDS011;19292;51.532;7.650;2022-08-05T04:04:31;12.52;;;6.22;;
32934;SDS011;19292;51.532;7.650;2022-08-05T04:06:58;10.77;;;7.05;;
32934;SDS011;19292;51.532;7.650;2022-08-05T04:09:24;12.70;;;7.18;;
32934;SDS011;19292;51.532;7.650;2022-08-05T04:11:50;15.70;;;7.93;;
32934;SDS011;19292;51.532;7.650;2022-08-05T04:14:15;10.77;;;9.68;;
32934;SDS011;19292;51.532;7.650;2022-08-05T04:16:41;13.95;;;10.27;;
32934;SDS011;19292;51.532;7.650;2022-08-05T04:19:10;15.68;;;9.52;;
32934;SDS011;19292;51.532;7.650;2022-08-05T04:21:36;14.30;;;10.48;;
32934;SDS011;19292;51.532;7.650;2022-08-05T04:24:02;10.18;;;9.25;;
32934;SDS011;19292;51.532;7.650;2022-08-05T04:26:29;14.25;;;10.25;;
32934;SDS011;19292;51.532;7.650;2022-08-05T04:28:54;10.82;;;8.38;;
32934;SDS011;19292;51.532;7.650;2022-08-05T04:31:19;13.77;;;10.07;;
32934;SDS011;19292;51.532;7.650;2022-08-05T04:33:45;12.48;;;8.75;;
32934;SDS011;19292;51.532;7.650;2022-08-05T04:36:13;11.30;;;8.90;;
32934;SDS011;19292;51.532;7.650;2022-08-05T04:38:40;10.07;;;8.25;;
32934;SDS011;19292;51.532;7.650;2022-08-05T04:41:06;11.35;;;8.07;;
32934;SDS011;19292;51.532;7.650;2022-08-05T04:43:32;11.85;;;8.50;;
32934;SDS011;19292;51.532;7.650;2022-08-05T04:45:57;11.48;;;8.52;;
32934;SDS011;19292;51.532;7.650;2022-08-05T04:48:22;11.73;;;8.32;;
32934;SDS011;19292;51.532;7.650;2022-08-05T04:50:48;12.10;;;9.27;;
32934;SDS011;19292;51.532;7.650;2022-08-05T04:53:14;10.68;;;8.07;;
32934;SDS011;19292;51.532;7.650;2022-08-05T04:55:41;14.13;;;8.48;;
32934;SDS011;19292;51.532;7.650;2022-08-05T04:58:08;12.45;;;7.72;;
32934;SDS011;19292;51.532;7.650;2022-08-05T05:00:35;10.60;;;7.85;;
32934;SDS011;19292;51.532;7.650;2022-08-05T05:03:01;11.75;;;7.57;;
32934;SDS011;19292;51.532;7.650;2022-08-05T05:05:28;8.65;;;7.32;;
32934;SDS011;19292;51.532;7.650;2022-08-05T05:07:55;8.95;;;6.93;;
32934;SDS011;19292;51.532;7.650;2022-08-05T05:10:24;11.30;;;8.17;;
32934;SDS011;19292;51.532;7.650;2022-08-05T05:12:49;11.82;;;8.38;;
32934;SDS011;19292;51.532;7.650;2022-08-05T05:15:14;12.45;;;7.78;;
32934;SDS011;19292;51.532;7.650;2022-08-05T05:17:40;10.27;;;7.97;;
32934;SDS011;19292;51.532;7.650;2022-08-05T05:20:08;10.85;;;7.38;;
32934;SDS011;19292;51.532;7.650;2022-08-05T05:22:34;14.30;;;7.88;;
32934;SDS011;19292;51.532;7.650;2022-08-05T05:25:00;11.10;;;8.98;;
32934;SDS011;19292;51.532;7.650;2022-08-05T05:27:28;10.15;;;8.23;;
32934;SDS011;19292;51.532;7.650;2022-08-05T05:29:58;10.32;;;8.32;;
32934;SDS011;19292;51.532;7.650;2022-08-05T05:32:23;11.38;;;7.72;;
32934;SDS011;19292;51.532;7.650;2022-08-05T05:34:49;10.02;;;8.30;;
32934;SDS011;19292;51.532;7.650;2022-08-05T05:37:14;9.70;;;7.28;;
32934;SDS011;19292;51.532;7.650;2022-08-05T05:39:40;9.77;;;7.40;;
32934;SDS011;19292;51.532;7.650;2022-08-05T05:42:06;8.50;;;6.65;;
32934;SDS011;19292;51.532;7.650;2022-08-05T05:44:31;12.55;;;8.45;;
32934;SDS011;19292;51.532;7.650;2022-08-05T05:46:57;9.52;;;8.43;;
32934;SDS011;19292;51.532;7.650;2022-08-05T05:49:22;11.77;;;7.78;;
32934;SDS011;19292;51.532;7.650;2022-08-05T05:51:47;12.35;;;8.30;;
32934;SDS011;19292;51.532;7.650;2022-08-05T05:54:13;12.30;;;8.05;;
32934;SDS011;19292;51.532;7.650;2022-08-05T05:56:38;10.25;;;8.40;;
32934;SDS011;19292;51.532;7.650;2022-08-05T05:59:04;12.27;;;9.05;;
32934;SDS011;19292;51.532;7.650;2022-08-05T06:01:30;13.27;;;9.73;;
32934;SDS011;19292;51.532;7.650;2022-08-05T06:03:57;12.45;;;10.20;;
32934;SDS011;19292;51.532;7.650;2022-08-05T06:06:22;15.63;;;11.10;;
32934;SDS011;19292;51.532;7.650;2022-08-05T06:08:48;15.13;;;10.75;;
32934;SDS011;19292;51.532;7.650;2022-08-05T06:11:13;15.77;;;11.00;;
32934;SDS011;19292;51.532;7.650;2022-08-05T06:13:38;14.55;;;11.70;;
32934;SDS011;19292;51.532;7.650;2022-08-05T06:16:04;16.63;;;11.85;;
32934;SDS011;19292;51.532;7.650;2022-08-05T06:18:29;14.73;;;12.30;;
32934;SDS011;19292;51.532;7.650;2022-08-05T06:20:54;13.95;;;11.35;;
32934;SDS011;19292;51.532;7.650;2022-08-05T06:23:20;16.30;;;13.10;;
32934;SDS011;19292;51.532;7.650;2022-08-05T06:25:45;14.70;;;12.45;;
32934;SDS011;19292;51.532;7.650;2022-08-05T06:28:10;15.27;;;11.75;;
32934;SDS011;19292;51.532;7.650;2022-08-05T06:30:36;14.98;;;12.00;;
32934;SDS011;19292;51.532;7.650;2022-08-05T06:33:01;14.80;;;13.02;;
32934;SDS011;19292;51.532;7.650;2022-08-05T06:35:27;15.30;;;12.90;;
32934;SDS011;19292;51.532;7.650;2022-08-05T06:37:52;14.15;;;11.52;;
32934;SDS011;19292;51.532;7.650;2022-08-05T06:40:17;16.80;;;13.73;;
32934;SDS011;19292;51.532;7.650;2022-08-05T06:42:43;15.32;;;12.73;;
32934;SDS011;19292;51.532;7.650;2022-08-05T06:45:08;12.88;;;11.48;;
32934;SDS011;19292;51.532;7.650;2022-08-05T06:47:33;15.13;;;11.52;;
32934;SDS011;19292;51.532;7.650;2022-08-05T06:49:59;15.15;;;12.07;;
32934;SDS011;19292;51.532;7.650;2022-08-05T06:52:24;13.23;;;11.05;;
32934;SDS011;19292;51.532;7.650;2022-08-05T06:54:49;14.15;;;12.38;;
32934;SDS011;19292;51.532;7.650;2022-08-05T06:57:15;13.38;;;11.93;;
32934;SDS011;19292;51.532;7.650;2022-08-05T06:59:42;15.80;;;12.27;;
32934;SDS011;19292;51.532;7.650;2022-08-05T07:02:07;14.25;;;11.80;;
32934;SDS011;19292;51.532;7.650;2022-08-05T07:04:33;12.15;;;10.40;;
32934;SDS011;19292;51.532;7.650;2022-08-05T07:06:58;14.80;;;11.63;;
32934;SDS011;19292;51.532;7.650;2022-08-05T07:09:24;18.55;;;12.73;;
32934;SDS011;19292;51.532;7.650;2022-08-05T07:11:49;15.45;;;13.88;;
32934;SDS011;19292;51.532;7.650;2022-08-05T07:14:15;19.38;;;14.30;;
32934;SDS011;19292;51.532;7.650;2022-08-05T07:16:59;15.63;;;12.77;;
32934;SDS011;19292;51.532;7.650;2022-08-05T07:19:25;15.35;;;13.75;;
32934;SDS011;19292;51.532;7.650;2022-08-05T07:21:52;14.90;;;13.27;;
32934;SDS011;19292;51.532;7.650;2022-08-05T07:24:18;16.83;;;14.35;;
32934;SDS011;19292;51.532;7.650;2022-08-05T07:26:44;15.55;;;13.95;;
32934;SDS011;19292;51.532;7.650;2022-08-05T07:29:10;17.25;;;14.23;;
32934;SDS011;19292;51.532;7.650;2022-08-05T07:31:38;15.57;;;13.43;;
32934;SDS011;19292;51.532;7.650;2022-08-05T07:34:04;14.55;;;13.05;;
32934;SDS011;19292;51.532;7.650;2022-08-05T07:36:29;14.27;;;12.77;;
32934;SDS011;19292;51.532;7.650;2022-08-05T07:38:57;18.27;;;15.27;;
32934;SDS011;19292;51.532;7.650;2022-08-05T07:41:23;15.80;;;13.43;;
32934;SDS011;19292;51.532;7.650;2022-08-05T07:43:49;14.13;;;12.73;;
32934;SDS011;19292;51.532;7.650;2022-08-05T07:46:15;15.75;;;12.70;;
32934;SDS011;19292;51.532;7.650;2022-08-05T07:48:40;13.80;;;12.40;;
32934;SDS011;19292;51.532;7.650;2022-08-05T07:51:05;12.75;;;11.20;;
32934;SDS011;19292;51.532;7.650;2022-08-05T07:53:31;13.10;;;11.52;;
32934;SDS011;19292;51.532;7.650;2022-08-05T07:55:56;14.32;;;11.38;;
32934;SDS011;19292;51.532;7.650;2022-08-05T07:58:21;13.52;;;10.88;;
32934;SDS011;19292;51.532;7.650;2022-08-05T08:00:47;12.52;;;11.23;;
32934;SDS011;19292;51.532;7.650;2022-08-05T08:03:14;11.90;;;10.68;;
32934;SDS011;19292;51.532;7.650;2022-08-05T08:05:39;12.88;;;10.88;;
32934;SDS011;19292;51.532;7.650;2022-08-05T08:08:08;12.70;;;11.10;;
32934;SDS011;19292;51.532;7.650;2022-08-05T08:10:37;13.70;;;10.80;;
32934;SDS011;19292;51.532;7.650;2022-08-05T08:13:03;14.45;;;12.43;;
32934;SDS011;19292;51.532;7.650;2022-08-05T08:15:29;13.25;;;11.85;;
32934;SDS011;19292;51.532;7.650;2022-08-05T08:17:55;12.55;;;11.30;;
32934;SDS011;19292;51.532;7.650;2022-08-05T08:20:20;12.73;;;11.27;;
32934;SDS011;19292;51.532;7.650;2022-08-05T08:22:52;16.48;;;12.23;;
32934;SDS011;19292;51.532;7.650;2022-08-05T08:25:19;13.40;;;11.80;;
32934;SDS011;19292;51.532;7.650;2022-08-05T08:27:44;12.50;;;10.95;;
32934;SDS011;19292;51.532;7.650;2022-08-05T08:30:10;15.13;;;12.00;;
32934;SDS011;19292;51.532;7.650;2022-08-05T08:32:36;12.55;;;10.30;;
32934;SDS011;19292;51.532;7.650;2022-08-05T08:35:01;16.58;;;9.38;;
32934;SDS011;19292;51.532;7.650;2022-08-05T08:37:27;10.80;;;8.10;;
32934;SDS011;19292;51.532;7.650;2022-08-05T08:39:55;12.85;;;8.30;;
32934;SDS011;19292;51.532;7.650;2022-08-05T08:42:21;10.52;;;7.70;;
32934;SDS011;19292;51.532;7.650;2022-08-05T08:44:46;15.13;;;8.50;;
32934;SDS011;19292;51.532;7.650;2022-08-05T08:47:13;10.43;;;7.90;;
32934;SDS011;19292;51.532;7.650;2022-08-05T08:49:40;12.50;;;7.40;;
32934;SDS011;19292;51.532;7.650;2022-08-05T08:52:11;10.15;;;6.70;;
32934;SDS011;19292;51.532;7.650;2022-08-05T08:54:38;10.95;;;6.97;;
32934;SDS011;19292;51.532;7.650;2022-08-05T08:57:06;10.25;;;7.50;;
32934;SDS011;19292;51.532;7.650;2022-08-05T08:59:32;11.18;;;6.80;;
32934;SDS011;19292;51.532;7.650;2022-08-05T09:01:58;9.23;;;7.55;;
32934;SDS011;19292;51.532;7.650;2022-08-05T09:04:24;10.65;;;6.82;;
32934;SDS011;19292;51.532;7.650;2022-08-05T09:06:50;8.20;;;6.35;;
32934;SDS011;19292;51.532;7.650;2022-08-05T09:09:15;9.57;;;6.88;;
32934;SDS011;19292;51.532;7.650;2022-08-05T09:11:40;11.93;;;7.78;;
32934;SDS011;19292;51.532;7.650;2022-08-05T09:14:06;8.23;;;6.82;;
32934;SDS011;19292;51.532;7.650;2022-08-05T09:16:32;8.70;;;6.95;;
32934;SDS011;19292;51.532;7.650;2022-08-05T09:18:57;11.15;;;7.57;;
32934;SDS011;19292;51.532;7.650;2022-08-05T09:21:23;9.18;;;7.40;;
32934;SDS011;19292;51.532;7.650;2022-08-05T09:24:00;8.35;;;7.03;;
32934;SDS011;19292;51.532;7.650;2022-08-05T09:26:29;9.98;;;6.90;;
32934;SDS011;19292;51.532;7.650;2022-08-05T09:28:59;9.65;;;7.43;;
32934;SDS011;19292;51.532;7.650;2022-08-05T09:31:25;9.68;;;6.25;;
32934;SDS011;19292;51.532;7.650;2022-08-05T09:34:04;8.30;;;6.30;;
32934;SDS011;19292;51.532;7.650;2022-08-05T09:39:07;9.15;;;6.38;;
32934;SDS011;19292;51.532;7.650;2022-08-05T09:41:34;8.88;;;6.05;;
32934;SDS011;19292;51.532;7.650;2022-08-05T09:43:59;9.90;;;6.72;;
32934;SDS011;19292;51.532;7.650;2022-08-05T09:46:26;12.63;;;7.13;;
32934;SDS011;19292;51.532;7.650;2022-08-05T09:48:53;9.82;;;6.50;;
32934;SDS011;19292;51.532;7.650;2022-08-05T09:51:40;7.78;;;5.78;;
32934;SDS011;19292;51.532;7.650;2022-08-05T09:54:06;10.75;;;5.93;;
32934;SDS011;19292;51.532;7.650;2022-08-05T09:56:35;10.15;;;6.50;;
32934;SDS011;19292;51.532;7.650;2022-08-05T09:59:06;9.18;;;5.85;;
32934;SDS011;19292;51.532;7.650;2022-08-05T10:01:33;6.43;;;5.70;;
32934;SDS011;19292;51.532;7.650;2022-08-05T10:04:06;6.82;;;5.05;;
32934;SDS011;19292;51.532;7.650;2022-08-05T10:06:36;8.70;;;5.43;;
32934;SDS011;19292;51.532;7.650;2022-08-05T10:09:14;7.35;;;5.07;;
32934;SDS011;19292;51.532;7.650;2022-08-05T10:11:41;7.68;;;4.63;;
32934;SDS011;19292;51.532;7.650;2022-08-05T10:17:12;8.05;;;5.57;;
32934;SDS011;19292;51.532;7.650;2022-08-05T10:19:38;7.65;;;5.13;;
32934;SDS011;19292;51.532;7.650;2022-08-05T10:22:03;6.93;;;4.63;;
32934;SDS011;19292;51.532;7.650;2022-08-05T10:24:29;5.93;;;4.38;;
32934;SDS011;19292;51.532;7.650;2022-08-05T10:26:58;7.45;;;5.13;;
32934;SDS011;19292;51.532;7.650;2022-08-05T10:29:24;7.75;;;4.97;;
32934;SDS011;19292;51.532;7.650;2022-08-05T10:31:51;6.55;;;4.47;;
32934;SDS011;19292;51.532;7.650;2022-08-05T10:34:19;8.05;;;5.03;;
32934;SDS011;19292;51.532;7.650;2022-08-05T10:36:45;6.90;;;4.15;;
32934;SDS011;19292;51.532;7.650;2022-08-05T10:39:16;7.28;;;4.90;;
32934;SDS011;19292;51.532;7.650;2022-08-05T10:41:55;10.68;;;4.57;;
32934;SDS011;19292;51.532;7.650;2022-08-05T10:44:27;9.05;;;4.65;;
32934;SDS011;19292;51.532;7.650;2022-08-05T10:46:56;7.68;;;4.22;;
32934;SDS011;19292;51.532;7.650;2022-08-05T10:49:22;7.55;;;4.57;;
32934;SDS011;19292;51.532;7.650;2022-08-05T10:51:55;7.30;;;4.80;;
32934;SDS011;19292;51.532;7.650;2022-08-05T10:56:50;9.93;;;5.07;;
32934;SDS011;19292;51.532;7.650;2022-08-05T11:02:05;5.15;;;4.47;;
32934;SDS011;19292;51.532;7.650;2022-08-05T11:04:42;8.73;;;4.75;;
32934;SDS011;19292;51.532;7.650;2022-08-05T11:07:08;9.73;;;5.53;;
32934;SDS011;19292;51.532;7.650;2022-08-05T11:14:48;8.38;;;4.93;;
32934;SDS011;19292;51.532;7.650;2022-08-05T11:17:29;8.55;;;4.80;;
32934;SDS011;19292;51.532;7.650;2022-08-05T11:19:56;8.32;;;5.28;;
32934;SDS011;19292;51.532;7.650;2022-08-05T11:22:40;8.82;;;6.35;;
32934;SDS011;19292;51.532;7.650;2022-08-05T11:27:53;9.98;;;5.95;;
32934;SDS011;19292;51.532;7.650;2022-08-05T11:30:22;6.95;;;5.50;;
32934;SDS011;19292;51.532;7.650;2022-08-05T11:32:47;6.07;;;5.45;;
32934;SDS011;19292;51.532;7.650;2022-08-05T11:35:50;19.10;;;17.75;;
32934;SDS011;19292;51.532;7.650;2022-08-05T11:38:49;7.05;;;5.05;;
32934;SDS011;19292;51.532;7.650;2022-08-05T11:41:06;9.63;;;5.50;;
32934;SDS011;19292;51.532;7.650;2022-08-05T11:43:37;9.63;;;5.65;;
32934;SDS011;19292;51.532;7.650;2022-08-05T11:46:03;9.75;;;5.45;;
32934;SDS011;19292;51.532;7.650;2022-08-05T11:48:31;7.75;;;4.50;;
32934;SDS011;19292;51.532;7.650;2022-08-05T11:50:57;5.65;;;4.18;;
32934;SDS011;19292;51.532;7.650;2022-08-05T11:53:22;6.25;;;4.22;;
32934;SDS011;19292;51.532;7.650;2022-08-05T11:55:51;5.82;;;4.00;;
32934;SDS011;19292;51.532;7.650;2022-08-05T11:58:24;5.55;;;4.50;;
32934;SDS011;19292;51.532;7.650;2022-08-05T12:00:59;6.43;;;4.47;;
32934;SDS011;19292;51.532;7.650;2022-08-05T12:03:44;4.25;;;3.33;;
32934;SDS011;19292;51.532;7.650;2022-08-05T12:06:12;6.45;;;4.72;;
32934;SDS011;19292;51.532;7.650;2022-08-05T12:08:45;8.60;;;4.07;;
32934;SDS011;19292;51.532;7.650;2022-08-05T12:11:14;6.00;;;3.83;;
32934;SDS011;19292;51.532;7.650;2022-08-05T12:13:51;6.85;;;4.30;;
32934;SDS011;19292;51.532;7.650;2022-08-05T12:16:39;4.40;;;3.85;;
32934;SDS011;19292;51.532;7.650;2022-08-05T12:19:06;5.20;;;3.85;;
32934;SDS011;19292;51.532;7.650;2022-08-05T12:21:34;4.65;;;4.25;;
32934;SDS011;19292;51.532;7.650;2022-08-05T12:24:10;5.20;;;3.95;;
32934;SDS011;19292;51.532;7.650;2022-08-05T12:26:41;5.70;;;4.30;;
32934;SDS011;19292;51.532;7.650;2022-08-05T12:29:18;7.53;;;4.40;;
32934;SDS011;19292;51.532;7.650;2022-08-05T12:31:48;7.45;;;4.80;;
32934;SDS011;19292;51.532;7.650;2022-08-05T12:34:16;4.95;;;3.42;;
32934;SDS011;19292;51.532;7.650;2022-08-05T12:36:43;4.78;;;3.38;;
32934;SDS011;19292;51.532;7.650;2022-08-05T12:39:09;4.57;;;3.03;;
32934;SDS011;19292;51.532;7.650;2022-08-05T12:41:35;6.50;;;3.47;;
32934;SDS011;19292;51.532;7.650;2022-08-05T12:44:02;6.35;;;3.60;;
32934;SDS011;19292;51.532;7.650;2022-08-05T12:46:30;8.48;;;4.13;;
32934;SDS011;19292;51.532;7.650;2022-08-05T12:49:00;10.80;;;9.80;;
32934;SDS011;19292;51.532;7.650;2022-08-05T12:51:30;6.30;;;3.03;;
32934;SDS011;19292;51.532;7.650;2022-08-05T12:54:00;4.70;;;2.95;;
32934;SDS011;19292;51.532;7.650;2022-08-05T12:56:26;7.65;;;3.00;;
32934;SDS011;19292;51.532;7.650;2022-08-05T13:01:41;4.85;;;2.92;;
32934;SDS011;19292;51.532;7.650;2022-08-05T13:04:10;3.97;;;2.38;;
32934;SDS011;19292;51.532;7.650;2022-08-05T13:06:37;12.75;;;4.22;;
32934;SDS011;19292;51.532;7.650;2022-08-05T13:09:05;11.73;;;5.18;;
32934;SDS011;19292;51.532;7.650;2022-08-05T13:11:39;14.32;;;3.38;;
32934;SDS011;19292;51.532;7.650;2022-08-05T13:14:24;5.13;;;3.03;;
32934;SDS011;19292;51.532;7.650;2022-08-05T13:16:56;4.80;;;2.50;;
32934;SDS011;19292;51.532;7.650;2022-08-05T13:19:25;5.07;;;2.67;;
32934;SDS011;19292;51.532;7.650;2022-08-05T13:21:52;6.65;;;4.43;;
32934;SDS011;19292;51.532;7.650;2022-08-05T13:24:18;6.28;;;2.03;;
32934;SDS011;19292;51.532;7.650;2022-08-05T13:26:48;9.02;;;2.75;;
32934;SDS011;19292;51.532;7.650;2022-08-05T13:29:14;3.37;;;2.20;;
32934;SDS011;19292;51.532;7.650;2022-08-05T13:31:44;4.25;;;2.10;;
32934;SDS011;19292;51.532;7.650;2022-08-05T13:34:09;6.40;;;3.05;;
32934;SDS011;19292;51.532;7.650;2022-08-05T13:36:35;3.95;;;2.08;;
32934;SDS011;19292;51.532;7.650;2022-08-05T13:39:02;4.20;;;2.60;;
32934;SDS011;19292;51.532;7.650;2022-08-05T13:41:28;6.25;;;2.22;;
32934;SDS011;19292;51.532;7.650;2022-08-05T13:43:59;3.55;;;2.30;;
32934;SDS011;19292;51.532;7.650;2022-08-05T13:46:25;5.38;;;2.35;;
32934;SDS011;19292;51.532;7.650;2022-08-05T13:48:53;5.30;;;2.30;;
32934;SDS011;19292;51.532;7.650;2022-08-05T13:51:29;3.90;;;2.97;;
32934;SDS011;19292;51.532;7.650;2022-08-05T13:53:58;4.50;;;2.60;;
32934;SDS011;19292;51.532;7.650;2022-08-05T13:56:24;5.53;;;2.25;;
32934;SDS011;19292;51.532;7.650;2022-08-05T13:58:50;4.78;;;2.97;;
32934;SDS011;19292;51.532;7.650;2022-08-05T14:01:16;4.25;;;2.33;;
32934;SDS011;19292;51.532;7.650;2022-08-05T14:03:41;3.65;;;2.47;;
32934;SDS011;19292;51.532;7.650;2022-08-05T14:06:06;6.22;;;2.67;;
32934;SDS011;19292;51.532;7.650;2022-08-05T14:08:32;3.72;;;2.35;;
32934;SDS011;19292;51.532;7.650;2022-08-05T14:10:57;4.40;;;2.60;;
32934;SDS011;19292;51.532;7.650;2022-08-05T14:13:22;4.57;;;2.53;;
32934;SDS011;19292;51.532;7.650;2022-08-05T14:15:49;5.13;;;2.42;;
32934;SDS011;19292;51.532;7.650;2022-08-05T14:18:14;6.85;;;2.40;;
32934;SDS011;19292;51.532;7.650;2022-08-05T14:20:40;4.50;;;2.40;;
32934;SDS011;19292;51.532;7.650;2022-08-05T14:23:05;4.05;;;2.00;;
32934;SDS011;19292;51.532;7.650;2022-08-05T14:25:30;3.20;;;2.20;;
32934;SDS011;19292;51.532;7.650;2022-08-05T14:27:56;5.90;;;2.58;;
32934;SDS011;19292;51.532;7.650;2022-08-05T14:30:21;6.88;;;2.72;;
32934;SDS011;19292;51.532;7.650;2022-08-05T14:32:48;4.25;;;2.40;;
32934;SDS011;19292;51.532;7.650;2022-08-05T14:35:13;4.30;;;2.15;;
32934;SDS011;19292;51.532;7.650;2022-08-05T14:37:38;5.22;;;2.25;;
32934;SDS011;19292;51.532;7.650;2022-08-05T14:40:04;3.67;;;2.47;;
32934;SDS011;19292;51.532;7.650;2022-08-05T14:42:30;3.15;;;2.05;;
32934;SDS011;19292;51.532;7.650;2022-08-05T14:44:56;4.32;;;2.47;;
32934;SDS011;19292;51.532;7.650;2022-08-05T14:47:21;2.78;;;1.70;;
32934;SDS011;19292;51.532;7.650;2022-08-05T14:49:46;4.28;;;2.00;;
32934;SDS011;19292;51.532;7.650;2022-08-05T14:52:12;2.60;;;1.92;;
32934;SDS011;19292;51.532;7.650;2022-08-05T14:54:37;5.78;;;2.17;;
32934;SDS011;19292;51.532;7.650;2022-08-05T14:57:03;4.43;;;2.10;;
32934;SDS011;19292;51.532;7.650;2022-08-05T14:59:28;3.15;;;2.35;;
32934;SDS011;19292;51.532;7.650;2022-08-05T15:01:53;3.30;;;2.08;;
32934;SDS011;19292;51.532;7.650;2022-08-05T15:04:19;3.47;;;1.65;;
32934;SDS011;19292;51.532;7.650;2022-08-05T15:06:45;5.50;;;2.25;;
32934;SDS011;19292;51.532;7.650;2022-08-05T15:09:10;33.85;;;32.13;;
32934;SDS011;19292;51.532;7.650;2022-08-05T15:11:36;3.75;;;1.65;;
32934;SDS011;19292;51.532;7.650;2022-08-05T15:14:01;2.10;;;1.40;;
32934;SDS011;19292;51.532;7.650;2022-08-05T15:16:27;2.53;;;1.58;;
32934;SDS011;19292;51.532;7.650;2022-08-05T15:18:52;4.60;;;1.58;;